Observation data for Plainview on 12/10/2018      Previous  Date       Current Mesonet Observations  Soil Data  Daily Summary Page  Observations in Plain Language
KPVS 100600Z 28005KT M02/M03 A3036 RMK A01 T10201032  RH  093%=      5-min Rain = 0
KPVS 100605Z 28004KT M02/M03 A3036 RMK A01 T10211033  RH  093%=      5-min Rain = 0
KPVS 100610Z 28004KT M02/M03 A3036 RMK A01 T10211032  RH  093%=      5-min Rain = 0
KPVS 100615Z 27005KT M02/M03 A3036 RMK A01 T10201031  RH  093%=      5-min Rain = 0
KPVS 100620Z 28004KT M02/M03 A3036 RMK A01 T10191031  RH  093%=      5-min Rain = 0
KPVS 100625Z 29004KT M02/M03 A3035 RMK A01 T10201032  RH  092%=      5-min Rain = 0
KPVS 100630Z 29004KT M02/M03 A3035 RMK A01 T10211033  RH  093%=      5-min Rain = 0
KPVS 100635Z 29004KT M02/M03 A3035 RMK A01 T10221033  RH  093%=      5-min Rain = 0
KPVS 100640Z 28005KT M02/M03 A3035 RMK A01 T10211032  RH  093%=      5-min Rain = 0
KPVS 100645Z 28007KT M02/M03 A3035 RMK A01 T10201031  RH  093%=      5-min Rain = 0
KPVS 100650Z 28006KT M02/M03 A3035 RMK A01 T10161027  RH  093%=      5-min Rain = 0
KPVS 100655Z 28005KT M02/M03 A3035 RMK A01 T10181031  RH  092%=      5-min Rain = 0
KPVS 100700Z 29006KT M02/M03 A3035 RMK A01 T10211034  RH  092%=      5-min Rain = 0
KPVS 100705Z 29007KT M02/M03 A3035 RMK A01 T10221033  RH  093%=      5-min Rain = 0
KPVS 100710Z 28007KT M02/M03 A3035 RMK A01 T10181029  RH  093%=      5-min Rain = 0
KPVS 100715Z 28007KT M02/M03 A3035 RMK A01 T10171029  RH  093%=      5-min Rain = 0
KPVS 100720Z 29006KT M02/M03 A3034 RMK A01 T10161029  RH  092%=      5-min Rain = 0
KPVS 100725Z 29006KT M02/M03 A3034 RMK A01 T10161028  RH  092%=      5-min Rain = 0
KPVS 100730Z 29006KT M01/M03 A3034 RMK A01 T10141026  RH  092%=      5-min Rain = 0
KPVS 100735Z 29005KT M01/M03 A3034 RMK A01 T10131026  RH  092%=      5-min Rain = 0
KPVS 100740Z 30006KT M01/M03 A3033 RMK A01 T10131026  RH  092%=      5-min Rain = 0
KPVS 100745Z 29007KT M01/M03 A3033 RMK A01 T10101025  RH  091%=      5-min Rain = 0
KPVS 100750Z 28005KT M01/M03 A3033 RMK A01 T10121027  RH  090%=      5-min Rain = 0
KPVS 100755Z 28006KT M01/M03 A3033 RMK A01 T10121028  RH  090%=      5-min Rain = 0
KPVS 100800Z 29006KT M01/M03 A3033 RMK A01 T10131028  RH  090%=      5-min Rain = 0
KPVS 100805Z 29005KT M01/M03 A3033 RMK A01 T10141030  RH  090%=      5-min Rain = 0
KPVS 100810Z 27005KT M02/M03 A3033 RMK A01 T10171032  RH  090%=      5-min Rain = 0
KPVS 100815Z 27006KT M02/M03 A3033 RMK A01 T10191034  RH  091%=      5-min Rain = 0
KPVS 100820Z 27005KT M02/M04 A3033 RMK A01 T10211036  RH  091%=      5-min Rain = 0
KPVS 100825Z 26003KT M02/M04 A3033 RMK A01 T10231037  RH  091%=      5-min Rain = 0
KPVS 100830Z 27003KT M02/M04 A3033 RMK A01 T10241037  RH  092%=      5-min Rain = 0
KPVS 100835Z 26004KT M02/M04 A3032 RMK A01 T10241037  RH  092%=      5-min Rain = 0
KPVS 100840Z 28005KT M03/M04 A3032 RMK A01 T10251038  RH  092%=      5-min Rain = 0
KPVS 100845Z 28005KT M03/M04 A3032 RMK A01 T10271040  RH  092%=      5-min Rain = 0
KPVS 100850Z 28007KT M03/M04 A3032 RMK A01 T10271039  RH  092%=      5-min Rain = 0
KPVS 100855Z 28006KT M02/M04 A3032 RMK A01 T10241036  RH  092%=      5-min Rain = 0
KPVS 100900Z 28006KT M02/M04 A3032 RMK A01 T10231037  RH  091%=      5-min Rain = 0
KPVS 100905Z 28006KT M03/M04 A3032 RMK A01 T10251039  RH  091%=      5-min Rain = 0
KPVS 100910Z 28007KT M03/M04 A3032 RMK A01 T10251038  RH  091%=      5-min Rain = 0
KPVS 100915Z 28006KT M02/M04 A3032 RMK A01 T10241038  RH  091%=      5-min Rain = 0
KPVS 100920Z 28006KT M02/M04 A3032 RMK A01 T10211036  RH  090%=      5-min Rain = 0
KPVS 100925Z 28006KT M02/M04 A3032 RMK A01 T10191036  RH  089%=      5-min Rain = 0
KPVS 100930Z 27007KT M02/M04 A3032 RMK A01 T10191036  RH  089%=      5-min Rain = 0
KPVS 100935Z 27007KT M02/M04 A3032 RMK A01 T10191038  RH  088%=      5-min Rain = 0
KPVS 100940Z 27006KT M02/M04 A3032 RMK A01 T10221040  RH  088%=      5-min Rain = 0
KPVS 100945Z 27006KT M02/M04 A3031 RMK A01 T10241041  RH  089%=      5-min Rain = 0
KPVS 100950Z 28006KT M03/M04 A3031 RMK A01 T10261044  RH  089%=      5-min Rain = 0
KPVS 100955Z 28006KT M03/M04 A3031 RMK A01 T10281044  RH  090%=      5-min Rain = 0
KPVS 101000Z 28007KT M03/M04 A3032 RMK A01 T10261042  RH  090%=      5-min Rain = 0
KPVS 101005Z 28007KT M03/M04 A3032 RMK A01 T10251041  RH  090%=      5-min Rain = 0
KPVS 101010Z 28007KT M02/M04 A3031 RMK A01 T10231040  RH  089%=      5-min Rain = 0
KPVS 101015Z 28006KT M02/M04 A3031 RMK A01 T10221040  RH  089%=      5-min Rain = 0
KPVS 101020Z 28007KT M02/M04 A3031 RMK A01 T10221041  RH  088%=      5-min Rain = 0
KPVS 101025Z 28006KT M02/M04 A3031 RMK A01 T10231042  RH  088%=      5-min Rain = 0
KPVS 101030Z 28007KT M02/M04 A3031 RMK A01 T10241043  RH  088%=      5-min Rain = 0
KPVS 101035Z 28007KT M02/M04 A3031 RMK A01 T10241043  RH  088%=      5-min Rain = 0
KPVS 101040Z 28007KT M03/M04 A3031 RMK A01 T10251043  RH  088%=      5-min Rain = 0
KPVS 101045Z 28007KT M02/M04 A3031 RMK A01 T10241042  RH  089%=      5-min Rain = 0
KPVS 101050Z 28007KT M02/M04 A3031 RMK A01 T10231041  RH  088%=      5-min Rain = 0
KPVS 101055Z 28006KT M02/M04 A3031 RMK A01 T10241042  RH  088%=      5-min Rain = 0
KPVS 101100Z 29008KT M02/M04 A3031 RMK A01 T10241041  RH  089%=      5-min Rain = 0
KPVS 101105Z 28009KT M02/M04 A3031 RMK A01 T10211038  RH  089%=      5-min Rain = 0
KPVS 101110Z 28007KT M02/M04 A3031 RMK A01 T10211038  RH  089%=      5-min Rain = 0
KPVS 101115Z 28007KT M02/M04 A3031 RMK A01 T10221039  RH  089%=      5-min Rain = 0
KPVS 101120Z 28007KT M02/M04 A3031 RMK A01 T10231039  RH  090%=      5-min Rain = 0
KPVS 101125Z 28008KT M02/M04 A3031 RMK A01 T10221038  RH  090%=      5-min Rain = 0
KPVS 101130Z 28008KT M02/M04 A3031 RMK A01 T10221037  RH  090%=      5-min Rain = 0
KPVS 101135Z 28008KT M02/M04 A3031 RMK A01 T10231038  RH  090%=      5-min Rain = 0
KPVS 101140Z 28007KT M02/M04 A3031 RMK A01 T10231038  RH  091%=      5-min Rain = 0
KPVS 101145Z 28006KT M02/M04 A3031 RMK A01 T10241038  RH  091%=      5-min Rain = 0
KPVS 101150Z 27006KT M02/M04 A3031 RMK A01 T10231036  RH  092%=      5-min Rain = 0
KPVS 101155Z 27007KT M02/M04 A3031 RMK A01 T10231037  RH  091%=      5-min Rain = 0
KPVS 101200Z 27006KT M03/M04 A3031 RMK A01 T10251039  RH  091%=      5-min Rain = 0
KPVS 101205Z 27006KT M03/M04 A3032 RMK A01 T10291042  RH  091%=      5-min Rain = 0
KPVS 101210Z 28006KT M03/M04 A3032 RMK A01 T10311044  RH  092%=      5-min Rain = 0
KPVS 101215Z 28006KT M03/M04 A3032 RMK A01 T10321043  RH  093%=      5-min Rain = 0
KPVS 101220Z 28006KT M03/M04 A3032 RMK A01 T10301042  RH  093%=      5-min Rain = 0
KPVS 101225Z 28007KT M03/M04 A3032 RMK A01 T10291040  RH  093%=      5-min Rain = 0
KPVS 101230Z 28007KT M03/M04 A3032 RMK A01 T10251036  RH  094%=      5-min Rain = 0
KPVS 101235Z 28007KT M02/M04 A3032 RMK A01 T10241035  RH  093%=      5-min Rain = 0
KPVS 101240Z 28007KT M03/M04 A3032 RMK A01 T10251037  RH  093%=      5-min Rain = 0
KPVS 101245Z 28007KT M03/M04 A3032 RMK A01 T10251037  RH  093%=      5-min Rain = 0
KPVS 101250Z 28007KT M02/M03 A3033 RMK A01 T10231034  RH  093%=      5-min Rain = 0
KPVS 101255Z 27007KT M02/M03 A3033 RMK A01 T10201032  RH  093%=      5-min Rain = 0
KPVS 101300Z 27007KT M02/M03 A3032 RMK A01 T10201032  RH  092%=      5-min Rain = 0
KPVS 101305Z 27006KT M02/M03 A3032 RMK A01 T10211034  RH  092%=      5-min Rain = 0
KPVS 101310Z 27006KT M02/M04 A3032 RMK A01 T10221035  RH  092%=      5-min Rain = 0
KPVS 101315Z 28006KT M02/M04 A3032 RMK A01 T10231035  RH  092%=      5-min Rain = 0
KPVS 101320Z 28006KT M02/M04 A3032 RMK A01 T10241036  RH  093%=      5-min Rain = 0
KPVS 101325Z 28006KT M02/M03 A3032 RMK A01 T10221032  RH  094%=      5-min Rain = 0
KPVS 101330Z 27006KT M02/M03 A3032 RMK A01 T10201031  RH  093%=      5-min Rain = 0
KPVS 101335Z 27006KT M02/M03 A3032 RMK A01 T10211032  RH  093%=      5-min Rain = 0
KPVS 101340Z 27006KT M02/M03 A3032 RMK A01 T10221033  RH  093%=      5-min Rain = 0
KPVS 101345Z 27006KT M02/M03 A3033 RMK A01 T10231034  RH  093%=      5-min Rain = 0
KPVS 101350Z 28006KT M02/M03 A3033 RMK A01 T10231033  RH  094%=      5-min Rain = 0
KPVS 101355Z 28006KT M03/M04 A3033 RMK A01 T10251036  RH  093%=      5-min Rain = 0
KPVS 101400Z 29005KT M03/M04 A3034 RMK A01 T10271037  RH  094%=      5-min Rain = 0
KPVS 101405Z 29005KT M03/M04 A3034 RMK A01 T10261035  RH  094%=      5-min Rain = 0
KPVS 101410Z 29005KT M02/M03 A3034 RMK A01 T10231032  RH  094%=      5-min Rain = 0
KPVS 101415Z 29005KT M02/M03 A3034 RMK A01 T10201030  RH  094%=      5-min Rain = 0
KPVS 101420Z 28005KT M02/M03 A3034 RMK A01 T10171027  RH  094%=      5-min Rain = 0
KPVS 101425Z 28005KT M02/M03 A3034 RMK A01 T10151026  RH  093%=      5-min Rain = 0
KPVS 101430Z 28006KT M01/M03 A3034 RMK A01 T10131025  RH  093%=      5-min Rain = 0
KPVS 101435Z 28006KT M01/M02 A3034 RMK A01 T10111023  RH  092%=      5-min Rain = 0
KPVS 101440Z 27006KT M01/M02 A3034 RMK A01 T10091022  RH  092%=      5-min Rain = 0
KPVS 101445Z 27007KT M01/M02 A3034 RMK A01 T10071022  RH  091%=      5-min Rain = 0
KPVS 101450Z 26006KT M01/M02 A3034 RMK A01 T10071023  RH  090%=      5-min Rain = 0
KPVS 101455Z 27006KT M01/M02 A3035 RMK A01 T10071023  RH  090%=      5-min Rain = 0
KPVS 101500Z 28007KT M01/M02 A3035 RMK A01 T10051020  RH  090%=      5-min Rain = 0
KPVS 101505Z 28006KT 00/02 A3035 RMK A01 T00-00-17  RH  090%=      5-min Rain = 0
KPVS 101510Z 28007KT 00/M01 A3035 RMK A01 T00041013  RH  090%=      5-min Rain = 0
KPVS 101515Z 28009KT 01/M01 A3035 RMK A01 T00081011  RH  088%=      5-min Rain = 0
KPVS 101520Z 28008KT 01/M01 A3035 RMK A01 T00091011  RH  088%=      5-min Rain = 0
KPVS 101525Z 29007KT 01/M01 A3035 RMK A01 T00111008  RH  088%=      5-min Rain = 0
KPVS 101530Z 28008KT 02/M01 A3036 RMK A01 T00161005  RH  087%=      5-min Rain = 0
KPVS 101535Z 29007KT 02/M00 A3036 RMK A01 T00201004  RH  085%=      5-min Rain = 0
KPVS 101540Z 29006KT 02/M00 A3036 RMK A01 T00221003  RH  085%=      5-min Rain = 0
KPVS 101545Z 29006KT 03/M00 A3036 RMK A01 T00251003  RH  083%=      5-min Rain = 0
KPVS 101550Z 29007KT 03/M00 A3036 RMK A01 T00261003  RH  082%=      5-min Rain = 0
KPVS 101555Z 29007KT 03/M00 A3036 RMK A01 T00271003  RH  081%=      5-min Rain = 0
KPVS 101600Z 29006KT 03/M00 A3036 RMK A01 T00271003  RH  081%=      5-min Rain = 0
KPVS 101605Z 30006KT 03/00 A3036 RMK A01 T003000-0  RH  081%=      5-min Rain = 0
KPVS 101610Z 30008KT 03/M00 A3036 RMK A01 T00321001  RH  080%=      5-min Rain = 0
KPVS 101615Z 29006KT 03/00 A3036 RMK A01 T00330001  RH  080%=      5-min Rain = 0
KPVS 101620Z 28007KT 03/00 A3036 RMK A01 T00330000  RH  080%=      5-min Rain = 0
KPVS 101625Z 27006KT 03/M00 A3036 RMK A01 T00331001  RH  079%=      5-min Rain = 0
KPVS 101630Z 27005KT 03/00 A3036 RMK A01 T003400-0  RH  079%=      5-min Rain = 0
KPVS 101635Z 27006KT 04/00 A3036 RMK A01 T003700-0  RH  078%=      5-min Rain = 0
KPVS 101640Z 27006KT 04/00 A3036 RMK A01 T003800-0  RH  077%=      5-min Rain = 0
KPVS 101645Z 28007KT 04/00 A3035 RMK A01 T00410001  RH  076%=      5-min Rain = 0
KPVS 101650Z 28006KT 04/00 A3035 RMK A01 T00430001  RH  075%=      5-min Rain = 0
KPVS 101655Z 28005KT 04/00 A3035 RMK A01 T00440000  RH  074%=      5-min Rain = 0
KPVS 101700Z 30005KT 05/00 A3035 RMK A01 T00460003  RH  074%=      5-min Rain = 0
KPVS 101705Z 30006KT 05/00 A3035 RMK A01 T00500003  RH  072%=      5-min Rain = 0
KPVS 101710Z 30006KT 05/00 A3035 RMK A01 T00510003  RH  072%=      5-min Rain = 0
KPVS 101715Z 29007KT 05/00 A3035 RMK A01 T00540002  RH  070%=      5-min Rain = 0
KPVS 101720Z 29007KT 05/00 A3035 RMK A01 T00540001  RH  069%=      5-min Rain = 0
KPVS 101725Z 28007KT 06/00 A3035 RMK A01 T00550000  RH  069%=      5-min Rain = 0
KPVS 101730Z 28007KT 06/00 A3034 RMK A01 T00550002  RH  069%=      5-min Rain = 0
KPVS 101735Z 28007KT 06/00 A3034 RMK A01 T00570004  RH  069%=      5-min Rain = 0
KPVS 101740Z 28006KT 06/01 A3034 RMK A01 T00590005  RH  069%=      5-min Rain = 0
KPVS 101745Z 27006KT 06/01 A3034 RMK A01 T00600007  RH  069%=      5-min Rain = 0
KPVS 101750Z 28007KT 06/01 A3034 RMK A01 T00610005  RH  068%=      5-min Rain = 0
KPVS 101755Z 29007KT 06/01 A3033 RMK A01 T00640006  RH  067%=      5-min Rain = 0
KPVS 101800Z 29006KT 07/01 A3033 RMK A01 T00670007  RH  066%=      5-min Rain = 0
KPVS 101805Z 30006KT 07/01 A3033 RMK A01 T00700007  RH  065%=      5-min Rain = 0
KPVS 101810Z 29005KT 07/01 A3032 RMK A01 T00710008  RH  065%=      5-min Rain = 0
KPVS 101815Z 28005KT 07/01 A3032 RMK A01 T00720009  RH  065%=      5-min Rain = 0
KPVS 101820Z 28005KT 07/01 A3032 RMK A01 T00740010  RH  065%=      5-min Rain = 0
KPVS 101825Z 27004KT 08/01 A3032 RMK A01 T00750012  RH  065%=      5-min Rain = 0
KPVS 101830Z 26004KT 08/01 A3031 RMK A01 T00760012  RH  064%=      5-min Rain = 0
KPVS 101835Z 25005KT 08/01 A3031 RMK A01 T00770011  RH  064%=      5-min Rain = 0
KPVS 101840Z 25005KT 08/01 A3031 RMK A01 T00780011  RH  063%=      5-min Rain = 0
KPVS 101845Z 25005KT 08/01 A303 RMK A01 T00780012  RH  064%=      5-min Rain = 0
KPVS 101850Z 25004KT 08/01 A303 RMK A01 T00790013  RH  064%=      5-min Rain = 0
KPVS 101855Z 25004KT 08/01 A303 RMK A01 T00800013  RH  063%=      5-min Rain = 0
KPVS 101900Z 24005KT 08/01 A303 RMK A01 T00810014  RH  063%=      5-min Rain = 0
KPVS 101905Z 24006KT 08/01 A3029 RMK A01 T00810012  RH  062%=      5-min Rain = 0
KPVS 101910Z 25005KT 08/01 A3029 RMK A01 T00810013  RH  063%=      5-min Rain = 0
KPVS 101915Z 24006KT 08/02 A3029 RMK A01 T00830018  RH  064%=      5-min Rain = 0
KPVS 101920Z 25007KT 08/02 A3029 RMK A01 T00820015  RH  063%=      5-min Rain = 0
KPVS 101925Z 26008KT 08/01 A3029 RMK A01 T00790009  RH  062%=      5-min Rain = 0
KPVS 101930Z 26007KT 08/01 A3029 RMK A01 T00780011  RH  064%=      5-min Rain = 0
KPVS 101935Z 26006KT 08/01 A3029 RMK A01 T00800014  RH  064%=      5-min Rain = 0
KPVS 101940Z 26006KT 08/02 A3028 RMK A01 T00820017  RH  065%=      5-min Rain = 0
KPVS 101945Z 26006KT 08/02 A3028 RMK A01 T00840020  RH  065%=      5-min Rain = 0
KPVS 101950Z 24005KT 09/02 A3028 RMK A01 T00850021  RH  065%=      5-min Rain = 0
KPVS 101955Z 25007KT 09/02 A3028 RMK A01 T00850018  RH  063%=      5-min Rain = 0
KPVS 102000Z 25006KT 09/02 A3028 RMK A01 T00850018  RH  064%=      5-min Rain = 0
KPVS 102005Z 25006KT 09/02 A3028 RMK A01 T00850018  RH  064%=      5-min Rain = 0
KPVS 102010Z 23006KT 09/02 A3028 RMK A01 T00870023  RH  065%=      5-min Rain = 0
KPVS 102015Z 24007KT 09/02 A3027 RMK A01 T00870017  RH  062%=      5-min Rain = 0
KPVS 102020Z 24006KT 09/02 A3027 RMK A01 T00880017  RH  062%=      5-min Rain = 0
KPVS 102025Z 25007KT 09/02 A3027 RMK A01 T00880016  RH  061%=      5-min Rain = 0
KPVS 102030Z 25008KT 09/02 A3027 RMK A01 T00880016  RH  061%=      5-min Rain = 0
KPVS 102035Z 24005KT 09/02 A3027 RMK A01 T00900022  RH  063%=      5-min Rain = 0
KPVS 102040Z 23006KT 09/02 A3027 RMK A01 T00930022  RH  062%=      5-min Rain = 0
KPVS 102045Z 23007KT 09/02 A3027 RMK A01 T00940023  RH  062%=      5-min Rain = 0
KPVS 102050Z 24006KT 10/02 A3026 RMK A01 T00950020  RH  060%=      5-min Rain = 0
KPVS 102055Z 24007KT 10/02 A3026 RMK A01 T00970017  RH  058%=      5-min Rain = 0
KPVS 102100Z 25007KT 10/01 A3026 RMK A01 T00970011  RH  056%=      5-min Rain = 0
KPVS 102105Z 24006KT 10/01 A3026 RMK A01 T00960013  RH  057%=      5-min Rain = 0
KPVS 102110Z 24006KT 10/01 A3026 RMK A01 T00970013  RH  056%=      5-min Rain = 0
KPVS 102115Z 24006KT 10/01 A3026 RMK A01 T00990014  RH  056%=      5-min Rain = 0
KPVS 102120Z 24006KT 10/01 A3026 RMK A01 T01000014  RH  056%=      5-min Rain = 0
KPVS 102125Z 23005KT 10/02 A3026 RMK A01 T01010018  RH  057%=      5-min Rain = 0
KPVS 102130Z 23006KT 10/02 A3026 RMK A01 T01010022  RH  059%=      5-min Rain = 0
KPVS 102135Z 23006KT 10/02 A3025 RMK A01 T01020021  RH  058%=      5-min Rain = 0
KPVS 102140Z 23006KT 10/02 A3025 RMK A01 T01000019  RH  058%=      5-min Rain = 0
KPVS 102145Z 23006KT 10/02 A3025 RMK A01 T01000018  RH  058%=      5-min Rain = 0
KPVS 102150Z 23004KT 10/02 A3025 RMK A01 T01010021  RH  058%=      5-min Rain = 0
KPVS 102155Z 23005KT 10/02 A3025 RMK A01 T01020021  RH  058%=      5-min Rain = 0
KPVS 102200Z 24004KT 10/02 A3025 RMK A01 T01010020  RH  057%=      5-min Rain = 0
KPVS 102205Z 23004KT 10/02 A3025 RMK A01 T01020020  RH  057%=      5-min Rain = 0
KPVS 102210Z 23004KT 10/02 A3025 RMK A01 T01020017  RH  056%=      5-min Rain = 0
KPVS 102215Z 22003KT 10/02 A3025 RMK A01 T01030020  RH  057%=      5-min Rain = 0
KPVS 102220Z 21004KT 10/02 A3025 RMK A01 T01020018  RH  057%=      5-min Rain = 0
KPVS 102225Z 19004KT 10/03 A3025 RMK A01 T01030028  RH  061%=      5-min Rain = 0
KPVS 102230Z 17004KT 10/03 A3025 RMK A01 T00980031  RH  063%=      5-min Rain = 0
KPVS 102235Z 18004KT 10/03 A3025 RMK A01 T00960030  RH  064%=      5-min Rain = 0
KPVS 102240Z 19004KT 09/03 A3025 RMK A01 T00930029  RH  065%=      5-min Rain = 0
KPVS 102245Z 19004KT 09/03 A3026 RMK A01 T00910030  RH  066%=      5-min Rain = 0
KPVS 102250Z 19004KT 09/03 A3026 RMK A01 T00870029  RH  067%=      5-min Rain = 0
KPVS 102255Z 20004KT 08/03 A3026 RMK A01 T00840028  RH  069%=      5-min Rain = 0
KPVS 102300Z 20004KT 08/03 A3026 RMK A01 T00810028  RH  070%=      5-min Rain = 0
KPVS 102305Z 19005KT 08/03 A3026 RMK A01 T00760027  RH  072%=      5-min Rain = 0
KPVS 102310Z 19005KT 07/03 A3026 RMK A01 T00740029  RH  074%=      5-min Rain = 0
KPVS 102315Z 19004KT 07/03 A3026 RMK A01 T00710029  RH  075%=      5-min Rain = 0
KPVS 102320Z 19004KT 07/03 A3026 RMK A01 T00680027  RH  076%=      5-min Rain = 0
KPVS 102325Z 18005KT 07/03 A3026 RMK A01 T00660027  RH  077%=      5-min Rain = 0
KPVS 102330Z 18005KT 06/03 A3026 RMK A01 T00620026  RH  078%=      5-min Rain = 0
KPVS 102335Z 19005KT 06/02 A3026 RMK A01 T00570024  RH  080%=      5-min Rain = 0
KPVS 102340Z 19005KT 05/02 A3026 RMK A01 T00530021  RH  081%=      5-min Rain = 0
KPVS 102345Z 18006KT 05/02 A3026 RMK A01 T00480019  RH  082%=      5-min Rain = 0
KPVS 102350Z 19006KT 05/02 A3026 RMK A01 T00450017  RH  083%=      5-min Rain = 0
KPVS 102355Z 19007KT 04/02 A3026 RMK A01 T00430015  RH  083%=      5-min Rain = 0
KPVS 110000Z 18006KT 04/01 A3026 RMK A01 T00400014  RH  084%=      5-min Rain = 0
KPVS 110005Z 18005KT 04/01 A3026 RMK A01 T00380012  RH  085%=      5-min Rain = 0
KPVS 110010Z 19006KT 04/01 A3026 RMK A01 T00360012  RH  085%=      5-min Rain = 0
KPVS 110015Z 18006KT 03/01 A3026 RMK A01 T00340011  RH  086%=      5-min Rain = 0
KPVS 110020Z 18004KT 03/01 A3026 RMK A01 T00310008  RH  086%=      5-min Rain = 0
KPVS 110025Z 19005KT 03/01 A3026 RMK A01 T00280006  RH  087%=      5-min Rain = 0
KPVS 110030Z 19007KT 03/01 A3026 RMK A01 T00260006  RH  088%=      5-min Rain = 0
KPVS 110035Z 19007KT 03/01 A3026 RMK A01 T00250005  RH  088%=      5-min Rain = 0
KPVS 110040Z 19006KT 02/01 A3027 RMK A01 T00240005  RH  088%=      5-min Rain = 0
KPVS 110045Z 20004KT 02/00 A3027 RMK A01 T00230004  RH  088%=      5-min Rain = 0
KPVS 110050Z 20004KT 02/01 A3027 RMK A01 T00240005  RH  088%=      5-min Rain = 0
KPVS 110055Z 20003KT 02/00 A3026 RMK A01 T00240004  RH  088%=      5-min Rain = 0
KPVS 110100Z 19001KT 02/00 A3026 RMK A01 T00240004  RH  088%=      5-min Rain = 0
KPVS 110105Z 19003KT 02/00 A3026 RMK A01 T00230003  RH  087%=      5-min Rain = 0
KPVS 110110Z 20003KT 02/M00 A3026 RMK A01 T00201001  RH  087%=      5-min Rain = 0
KPVS 110115Z 20001KT 02/M00 A3026 RMK A01 T00171003  RH  088%=      5-min Rain = 0
KPVS 110120Z 19001KT 02/M00 A3025 RMK A01 T00161003  RH  088%=      5-min Rain = 0
KPVS 110125Z 19001KT 02/M00 A3026 RMK A01 T00151004  RH  088%=      5-min Rain = 0
KPVS 110130Z 17001KT 01/M00 A3026 RMK A01 T00141004  RH  089%=      5-min Rain = 0
KPVS 110135Z 19001KT 01/M00 A3025 RMK A01 T00141003  RH  089%=      5-min Rain = 0
KPVS 110140Z 20003KT 01/M00 A3026 RMK A01 T00141003  RH  089%=      5-min Rain = 0
KPVS 110145Z 19005KT 02/M00 A3026 RMK A01 T00161001  RH  090%=      5-min Rain = 0
KPVS 110150Z 18005KT 02/M00 A3026 RMK A01 T00181001  RH  089%=      5-min Rain = 0
KPVS 110155Z 18005KT 02/M00 A3026 RMK A01 T00181001  RH  088%=      5-min Rain = 0
KPVS 110200Z 17006KT 02/M00 A3026 RMK A01 T00181002  RH  088%=      5-min Rain = 0
KPVS 110205Z 18005KT 02/M00 A3026 RMK A01 T00171003  RH  088%=      5-min Rain = 0
KPVS 110210Z 18004KT 01/M01 A3026 RMK A01 T00141005  RH  088%=      5-min Rain = 0
KPVS 110215Z 19004KT 01/M01 A3026 RMK A01 T00121005  RH  089%=      5-min Rain = 0
KPVS 110220Z 19005KT 01/M01 A3026 RMK A01 T00111006  RH  090%=      5-min Rain = 0
KPVS 110225Z 19006KT 01/M01 A3027 RMK A01 T00111005  RH  090%=      5-min Rain = 0
KPVS 110230Z 20004KT 01/M01 A3027 RMK A01 T00111005  RH  090%=      5-min Rain = 0
KPVS 110235Z 20004KT 01/M01 A3026 RMK A01 T00101006  RH  090%=      5-min Rain = 0
KPVS 110240Z 19004KT 01/M01 A3026 RMK A01 T00101006  RH  090%=      5-min Rain = 0
KPVS 110245Z 19007KT 01/M01 A3026 RMK A01 T00101006  RH  090%=      5-min Rain = 0
KPVS 110250Z 19006KT 01/M01 A3026 RMK A01 T00121005  RH  090%=      5-min Rain = 0
KPVS 110255Z 19006KT 01/M01 A3026 RMK A01 T00111006  RH  089%=      5-min Rain = 0
KPVS 110300Z 19006KT 01/M01 A3026 RMK A01 T00111005  RH  090%=      5-min Rain = 0
KPVS 110305Z 19007KT 01/M00 A3026 RMK A01 T00131004  RH  090%=      5-min Rain = 0
KPVS 110310Z 19008KT 02/M00 A3027 RMK A01 T00171002  RH  088%=      5-min Rain = 0
KPVS 110315Z 19008KT 02/00 A3027 RMK A01 T00200000  RH  088%=      5-min Rain = 0
KPVS 110320Z 19008KT 02/00 A3027 RMK A01 T00220002  RH  087%=      5-min Rain = 0
KPVS 110325Z 18007KT 02/00 A3027 RMK A01 T00230003  RH  087%=      5-min Rain = 0
KPVS 110330Z 18008KT 02/00 A3027 RMK A01 T00240003  RH  087%=      5-min Rain = 0
KPVS 110335Z 18008KT 03/00 A3027 RMK A01 T00250002  RH  086%=      5-min Rain = 0
KPVS 110340Z 18008KT 02/00 A3027 RMK A01 T00240001  RH  086%=      5-min Rain = 0
KPVS 110345Z 18009KT 02/00 A3027 RMK A01 T002300-0  RH  086%=      5-min Rain = 0
KPVS 110350Z 18008KT 02/M00 A3027 RMK A01 T00221001  RH  086%=      5-min Rain = 0
KPVS 110355Z 17010KT 02/M00 A3026 RMK A01 T00211001  RH  086%=      5-min Rain = 0
KPVS 110400Z 17009KT 02/M00 A3027 RMK A01 T00201002  RH  086%=      5-min Rain = 0
KPVS 110405Z 18008KT 02/M00 A3027 RMK A01 T00191003  RH  086%=      5-min Rain = 0
KPVS 110410Z 18008KT 02/M00 A3027 RMK A01 T00191003  RH  087%=      5-min Rain = 0
KPVS 110415Z 18008KT 02/M00 A3026 RMK A01 T00191003  RH  086%=      5-min Rain = 0
KPVS 110420Z 18008KT 02/M00 A3027 RMK A01 T00191003  RH  086%=      5-min Rain = 0
KPVS 110425Z 18008KT 02/M00 A3027 RMK A01 T00211002  RH  086%=      5-min Rain = 0
KPVS 110430Z 18009KT 02/M00 A3027 RMK A01 T00211002  RH  085%=      5-min Rain = 0
KPVS 110435Z 18009KT 02/M00 A3026 RMK A01 T00221002  RH  085%=      5-min Rain = 0
KPVS 110440Z 17010KT 02/M00 A3026 RMK A01 T00221003  RH  085%=      5-min Rain = 0
KPVS 110445Z 17009KT 02/M00 A3026 RMK A01 T00211003  RH  085%=      5-min Rain = 0
KPVS 110450Z 17009KT 02/M00 A3026 RMK A01 T00191004  RH  086%=      5-min Rain = 0
KPVS 110455Z 17009KT 02/M01 A3026 RMK A01 T00171005  RH  086%=      5-min Rain = 0
KPVS 110500Z 17008KT 02/M01 A3026 RMK A01 T00161005  RH  087%=      5-min Rain = 0
KPVS 110505Z 17009KT 02/M01 A3026 RMK A01 T00161005  RH  087%=      5-min Rain = 0
KPVS 110510Z 17009KT 02/M00 A3026 RMK A01 T00161004  RH  088%=      5-min Rain = 0
KPVS 110515Z 18008KT 02/M00 A3026 RMK A01 T00151004  RH  088%=      5-min Rain = 0
KPVS 110520Z 18007KT 02/M00 A3026 RMK A01 T00151004  RH  088%=      5-min Rain = 0
KPVS 110525Z 19007KT 02/M00 A3026 RMK A01 T00151004  RH  088%=      5-min Rain = 0
KPVS 110530Z 19008KT 01/M00 A3026 RMK A01 T00141004  RH  089%=      5-min Rain = 0
KPVS 110535Z 19007KT 01/M01 A3026 RMK A01 T00121006  RH  089%=      5-min Rain = 0
KPVS 110540Z 19009KT 01/M01 A3026 RMK A01 T00101005  RH  090%=      5-min Rain = 0
KPVS 110545Z 19010KT 01/M00 A3025 RMK A01 T00111004  RH  091%=      5-min Rain = 0
KPVS 110550Z 19008KT 01/M00 A3025 RMK A01 T00121003  RH  091%=      5-min Rain = 0
KPVS 110555Z 20008KT 01/M00 A3025 RMK A01 T00121002  RH  091%=      5-min Rain = 0

Page generated in 0.0096 seconds.